createdAt,value
2023-05-11T00:00:42.501Z,18.90
2023-05-11T00:03:14.616Z,23.90
2023-05-11T00:05:42.786Z,15.90
2023-05-11T00:08:11.109Z,17.80
2023-05-11T00:10:39.467Z,17.20
2023-05-11T00:13:07.188Z,17.40
2023-05-11T00:15:35.237Z,17.40
2023-05-11T00:18:03.219Z,21.20
2023-05-11T00:20:31.120Z,18.40
2023-05-11T00:22:59.388Z,17.50
2023-05-11T00:25:27.622Z,21.90
2023-05-11T00:27:55.466Z,18.40
2023-05-11T00:30:23.260Z,19.80
2023-05-11T00:32:52.216Z,15.20
2023-05-11T00:35:20.079Z,18.70
2023-05-11T00:37:48.408Z,16.50
2023-05-11T00:40:16.991Z,17.90
2023-05-11T00:42:44.912Z,15.80
2023-05-11T00:45:12.742Z,15.90
2023-05-11T00:47:41.798Z,16.20
2023-05-11T00:50:09.735Z,19.00
2023-05-11T00:52:37.541Z,16.40
2023-05-11T00:55:06.827Z,17.30
2023-05-11T00:57:36.258Z,16.90
2023-05-11T01:00:04.429Z,15.10
2023-05-11T01:02:32.281Z,13.50
2023-05-11T01:05:01.913Z,15.60
2023-05-11T01:07:39.222Z,17.00
2023-05-11T01:10:18.374Z,15.50
2023-05-11T01:13:14.811Z,14.10
2023-05-11T01:15:52.169Z,14.00
2023-05-11T01:18:30.870Z,18.80
2023-05-11T01:21:02.348Z,14.40
2023-05-11T01:23:36.332Z,14.90
2023-05-11T01:26:51.108Z,16.20
2023-05-11T01:31:52.795Z,13.90
2023-05-11T01:34:26.447Z,14.90
2023-05-11T01:39:57.558Z,16.30
2023-05-11T01:42:32.723Z,15.80
2023-05-11T01:45:04.234Z,13.50
2023-05-11T01:47:32.256Z,13.80
2023-05-11T01:50:02.839Z,17.40
2023-05-11T01:52:32.245Z,17.20
2023-05-11T01:55:03.380Z,13.50
2023-05-11T01:57:33.099Z,18.00
2023-05-11T02:00:02.531Z,16.90
2023-05-11T02:02:32.363Z,15.70
2023-05-11T02:05:01.959Z,14.90
2023-05-11T02:07:32.107Z,18.50
2023-05-11T02:10:01.275Z,13.50
2023-05-11T02:12:33.855Z,15.60
2023-05-11T02:15:03.846Z,16.80
2023-05-11T02:17:32.818Z,16.20
2023-05-11T02:20:04.048Z,17.30
2023-05-11T02:22:34.155Z,15.00
2023-05-11T02:25:02.326Z,16.70
2023-05-11T02:27:30.254Z,16.80
2023-05-11T02:29:58.209Z,18.10
2023-05-11T02:32:30.007Z,18.00
2023-05-11T02:35:06.043Z,16.10
2023-05-11T02:37:40.863Z,16.80
2023-05-11T02:40:17.270Z,17.60
2023-05-11T02:42:48.909Z,16.90
2023-05-11T02:45:19.507Z,18.40
2023-05-11T02:47:56.351Z,17.10
2023-05-11T02:50:28.402Z,17.80
2023-05-11T02:53:00.815Z,15.50
2023-05-11T02:55:29.387Z,15.70
2023-05-11T02:57:58.019Z,15.20
2023-05-11T03:00:25.890Z,16.20
2023-05-11T03:02:53.824Z,17.80
2023-05-11T03:05:21.728Z,16.70
2023-05-11T03:07:49.502Z,14.30
2023-05-11T03:10:17.790Z,16.40
2023-05-11T03:12:46.767Z,15.70
2023-05-11T03:15:15.964Z,15.50
2023-05-11T03:17:44.440Z,13.90
2023-05-11T03:20:12.774Z,17.00
2023-05-11T03:22:40.931Z,14.90
2023-05-11T03:25:09.950Z,22.20
2023-05-11T03:27:41.245Z,15.30
2023-05-11T03:30:11.267Z,16.20
2023-05-11T03:32:39.027Z,13.60
2023-05-11T03:35:07.882Z,15.00
2023-05-11T03:37:38.496Z,16.10
2023-05-11T03:40:08.282Z,15.70
2023-05-11T03:42:38.108Z,13.10
2023-05-11T03:45:09.315Z,15.20
2023-05-11T03:47:41.200Z,14.00
2023-05-11T03:50:09.687Z,17.40
2023-05-11T03:52:37.982Z,14.50
2023-05-11T03:55:06.494Z,14.30
2023-05-11T03:57:35.097Z,13.80
2023-05-11T04:00:03.548Z,17.40
2023-05-11T04:02:31.860Z,14.30
2023-05-11T04:04:59.659Z,12.30
2023-05-11T04:07:27.390Z,15.00
2023-05-11T04:09:55.130Z,13.90
2023-05-11T04:12:22.915Z,14.10
2023-05-11T04:14:51.295Z,18.50
2023-05-11T04:17:19.090Z,15.80
2023-05-11T04:19:46.806Z,15.90
2023-05-11T04:22:14.607Z,13.80
2023-05-11T04:24:42.300Z,14.20
2023-05-11T04:27:10.025Z,11.90
2023-05-11T04:29:38.284Z,14.60
2023-05-11T04:32:06.134Z,13.90
2023-05-11T04:34:33.946Z,13.10
2023-05-11T04:37:07.141Z,13.30
2023-05-11T04:39:35.604Z,15.10
2023-05-11T04:42:03.918Z,15.70
2023-05-11T04:44:31.666Z,14.90
2023-05-11T04:46:59.585Z,16.30
2023-05-11T04:49:30.944Z,21.20
2023-05-11T04:51:58.653Z,19.00
2023-05-11T04:54:30.989Z,17.20
2023-05-11T04:56:59.221Z,14.10
2023-05-11T04:59:26.974Z,18.20
2023-05-11T05:01:54.892Z,20.40
2023-05-11T05:04:30.475Z,14.80
2023-05-11T05:06:58.835Z,19.80
2023-05-11T05:09:27.079Z,16.80
2023-05-11T05:12:00.917Z,16.80
2023-05-11T05:14:37.892Z,14.40
2023-05-11T05:17:05.768Z,16.30
2023-05-11T05:19:36.879Z,18.20
2023-05-11T05:22:05.504Z,18.00
2023-05-11T05:24:36.007Z,17.10
2023-05-11T05:27:03.898Z,19.60
2023-05-11T05:29:34.104Z,18.10
2023-05-11T05:32:02.287Z,18.70
2023-05-11T05:34:33.436Z,17.50
2023-05-11T05:37:01.192Z,14.70
2023-05-11T05:39:29.092Z,18.50
2023-05-11T05:41:56.844Z,13.90
2023-05-11T05:44:24.572Z,16.30
2023-05-11T05:46:52.522Z,12.50
2023-05-11T05:49:20.865Z,15.00
2023-05-11T05:51:50.812Z,14.60
2023-05-11T05:54:18.617Z,15.20
2023-05-11T05:56:55.560Z,13.50
2023-05-11T05:59:23.573Z,14.70
2023-05-11T06:01:52.175Z,12.50
2023-05-11T06:04:20.149Z,18.30
2023-05-11T06:06:48.192Z,14.30
2023-05-11T06:09:15.965Z,15.00
2023-05-11T06:11:43.800Z,15.30
2023-05-11T06:14:11.745Z,14.10
2023-05-11T06:16:45.555Z,16.90
2023-05-11T06:19:13.697Z,11.80
2023-05-11T06:21:43.008Z,17.10
2023-05-11T06:24:10.721Z,13.90
2023-05-11T06:26:38.578Z,15.80
2023-05-11T06:29:08.127Z,14.80
2023-05-11T06:31:37.137Z,20.30
2023-05-11T06:34:04.953Z,17.20
2023-05-11T06:36:33.020Z,16.80
2023-05-11T06:39:00.836Z,22.60
2023-05-11T06:41:29.118Z,17.80
2023-05-11T06:43:57.080Z,15.40
2023-05-11T06:46:24.979Z,18.40
2023-05-11T06:48:53.068Z,14.30
2023-05-11T06:51:24.272Z,13.60
2023-05-11T06:53:52.067Z,14.10
2023-05-11T06:56:21.997Z,19.30
2023-05-11T06:59:14.862Z,15.80
2023-05-11T07:01:43.039Z,14.50
2023-05-11T07:04:16.726Z,17.40
2023-05-11T07:06:55.415Z,13.70
2023-05-11T07:09:23.176Z,19.20
2023-05-11T07:11:53.819Z,12.90
2023-05-11T07:14:24.185Z,13.70
2023-05-11T07:16:58.279Z,18.50
2023-05-11T07:19:26.780Z,14.60
2023-05-11T07:21:54.601Z,12.90
2023-05-11T07:24:22.395Z,16.50
2023-05-11T07:27:06.624Z,15.10
2023-05-11T07:29:35.059Z,10.60
2023-05-11T07:32:11.656Z,16.30
2023-05-11T07:34:47.052Z,11.60
2023-05-11T07:37:15.374Z,19.50
2023-05-11T07:39:43.831Z,14.00
2023-05-11T07:42:12.710Z,12.50
2023-05-11T07:44:43.044Z,13.40
2023-05-11T07:47:25.029Z,14.90
2023-05-11T07:50:01.655Z,21.60
2023-05-11T07:52:44.775Z,14.10
2023-05-11T07:55:25.110Z,14.80
2023-05-11T07:58:04.010Z,13.20
2023-05-11T08:00:42.560Z,13.50
2023-05-11T08:03:11.662Z,15.00
2023-05-11T08:05:44.432Z,12.30
2023-05-11T08:08:24.421Z,14.90
2023-05-11T08:10:58.455Z,15.40
2023-05-11T08:13:34.476Z,17.30
2023-05-11T08:16:03.215Z,12.10
2023-05-11T08:18:36.783Z,12.60
2023-05-11T08:23:35.720Z,16.10
2023-05-11T08:26:04.289Z,12.30
2023-05-11T08:28:37.977Z,13.00
2023-05-11T08:31:08.576Z,15.80
2023-05-11T08:33:42.822Z,15.40
2023-05-11T08:36:17.100Z,14.60
2023-05-11T08:38:45.022Z,13.70
2023-05-11T08:41:13.885Z,12.30
2023-05-11T08:43:43.631Z,14.80
2023-05-11T08:46:29.702Z,14.20
2023-05-11T08:48:59.071Z,12.10
2023-05-11T08:51:32.862Z,13.90
2023-05-11T08:54:00.934Z,14.90
2023-05-11T08:56:29.964Z,13.50
2023-05-11T08:59:01.390Z,14.70
2023-05-11T09:01:29.962Z,11.00
2023-05-11T09:04:05.515Z,14.10
2023-05-11T09:06:39.138Z,11.10
2023-05-11T09:09:10.452Z,17.00
2023-05-11T09:11:39.795Z,16.00
2023-05-11T09:14:17.971Z,14.40
2023-05-11T09:16:46.560Z,13.40
2023-05-11T09:19:22.162Z,14.70
2023-05-11T09:21:52.853Z,12.40
2023-05-11T09:24:21.940Z,11.20
2023-05-11T09:26:50.109Z,13.00
2023-05-11T09:29:21.509Z,12.90
2023-05-11T09:31:49.385Z,9.80
2023-05-11T09:34:19.669Z,14.10
2023-05-11T09:36:57.033Z,9.00
2023-05-11T09:39:44.691Z,13.30
2023-05-11T09:42:24.117Z,10.60
2023-05-11T09:44:58.595Z,12.30
2023-05-11T09:47:27.729Z,8.60
2023-05-11T09:49:56.320Z,7.40
2023-05-11T09:52:27.077Z,8.10
2023-05-11T09:54:55.117Z,8.30
2023-05-11T09:57:27.843Z,11.80
2023-05-11T09:59:59.732Z,11.30
2023-05-11T10:02:31.422Z,8.80
2023-05-11T10:05:01.694Z,12.60
2023-05-11T10:07:33.991Z,8.30
2023-05-11T10:10:08.669Z,10.10
2023-05-11T10:12:42.749Z,9.20
2023-05-11T10:15:17.485Z,9.20
2023-05-11T10:17:45.964Z,11.80
2023-05-11T10:20:14.474Z,10.30
2023-05-11T10:22:45.931Z,11.70
2023-05-11T10:25:16.211Z,10.70
2023-05-11T10:30:30.799Z,10.00
2023-05-11T10:33:01.079Z,7.20
2023-05-11T10:35:30.649Z,5.20
2023-05-11T10:37:58.914Z,14.60
2023-05-11T10:40:27.274Z,8.80
2023-05-11T10:43:15.929Z,13.60
2023-05-11T10:46:30.448Z,9.90
2023-05-11T10:49:33.941Z,9.10
2023-05-11T10:52:31.235Z,9.60
2023-05-11T10:55:25.059Z,10.40
2023-05-11T10:57:58.708Z,5.70
2023-05-11T11:01:15.673Z,7.60
2023-05-11T11:03:57.691Z,6.90
2023-05-11T11:06:26.088Z,7.50
2023-05-11T11:09:01.516Z,8.30
2023-05-11T11:11:34.111Z,6.50
2023-05-11T11:14:06.063Z,8.70
2023-05-11T11:16:34.177Z,5.00
2023-05-11T11:19:32.915Z,8.90
2023-05-11T11:22:02.277Z,11.90
2023-05-11T11:24:39.768Z,6.60
2023-05-11T11:27:09.771Z,6.70
2023-05-11T11:29:40.522Z,5.80
2023-05-11T11:32:24.440Z,5.70
2023-05-11T11:34:53.082Z,6.40
2023-05-11T11:37:22.370Z,5.50
2023-05-11T11:39:53.701Z,4.20
2023-05-11T11:42:31.181Z,4.50
2023-05-11T11:45:29.144Z,9.20
2023-05-11T11:48:13.714Z,6.70
2023-05-11T11:50:43.930Z,7.80
2023-05-11T11:53:13.817Z,12.30
2023-05-11T11:55:46.959Z,6.10
2023-05-11T11:58:43.632Z,4.80
2023-05-11T12:01:26.066Z,4.70
2023-05-11T12:04:11.932Z,6.40
2023-05-11T12:06:41.619Z,9.90
2023-05-11T12:09:09.809Z,11.00
2023-05-11T12:11:38.651Z,8.10
2023-05-11T12:14:10.237Z,6.80
2023-05-11T12:16:43.316Z,4.20
2023-05-11T12:19:11.795Z,6.00
2023-05-11T12:21:40.045Z,4.60
2023-05-11T12:24:15.958Z,6.70
2023-05-11T12:26:43.738Z,8.20
2023-05-11T12:29:14.045Z,9.00
2023-05-11T12:31:46.238Z,5.60
2023-05-11T12:34:19.104Z,7.30
2023-05-11T12:36:48.962Z,6.00
2023-05-11T12:39:20.953Z,9.90
2023-05-11T12:41:50.111Z,4.70
2023-05-11T12:44:19.511Z,5.50
2023-05-11T12:46:48.855Z,8.60
2023-05-11T12:49:24.575Z,7.00
2023-05-11T12:51:56.091Z,10.60
2023-05-11T12:54:35.207Z,8.00
2023-05-11T12:57:08.948Z,7.00
2023-05-11T12:59:41.635Z,7.00
2023-05-11T13:02:18.607Z,5.30
2023-05-11T13:04:47.836Z,7.80
2023-05-11T13:07:25.182Z,10.90
2023-05-11T13:10:00.893Z,7.30
2023-05-11T13:12:32.252Z,7.00
2023-05-11T13:15:14.385Z,7.40
2023-05-11T13:17:43.413Z,5.90
2023-05-11T13:20:26.721Z,4.60
2023-05-11T13:23:11.553Z,6.90
2023-05-11T13:25:45.345Z,8.60
2023-05-11T13:28:18.686Z,8.30
2023-05-11T13:30:51.197Z,9.50
2023-05-11T13:33:19.821Z,7.30
2023-05-11T13:35:47.695Z,7.50
2023-05-11T13:38:15.506Z,7.30
2023-05-11T13:40:43.224Z,7.20
2023-05-11T13:43:10.933Z,8.80
2023-05-11T13:45:41.329Z,10.50
2023-05-11T13:48:10.966Z,7.70
2023-05-11T13:50:39.740Z,9.00
2023-05-11T13:53:07.517Z,10.60
2023-05-11T13:55:43.455Z,10.10
2023-05-11T13:58:11.353Z,9.00
2023-05-11T14:00:40.260Z,7.20
2023-05-11T14:03:08.277Z,4.10
2023-05-11T14:05:38.513Z,15.40
2023-05-11T14:08:07.011Z,19.10
2023-05-11T14:10:34.869Z,7.70
2023-05-11T14:13:02.717Z,14.00
2023-05-11T14:15:30.949Z,8.60
2023-05-11T14:17:58.902Z,6.30
2023-05-11T14:20:27.121Z,13.60
2023-05-11T14:22:54.865Z,5.50
2023-05-11T14:25:22.935Z,7.50
2023-05-11T14:27:54.655Z,10.00
2023-05-11T14:30:22.834Z,6.80
2023-05-11T14:32:52.721Z,6.30
2023-05-11T14:35:21.408Z,6.10
2023-05-11T14:37:49.340Z,12.30
2023-05-11T14:40:17.047Z,6.20
2023-05-11T14:42:45.453Z,6.60
2023-05-11T14:45:13.169Z,6.90
2023-05-11T14:47:41.017Z,4.80
2023-05-11T14:50:09.803Z,8.40
2023-05-11T14:52:37.674Z,7.40
2023-05-11T14:55:05.847Z,6.50
2023-05-11T14:57:34.124Z,8.90
2023-05-11T15:00:01.937Z,8.80
2023-05-11T15:02:29.936Z,8.30
2023-05-11T15:04:58.037Z,6.40
2023-05-11T15:07:26.861Z,7.10
2023-05-11T15:09:54.849Z,10.50
2023-05-11T15:12:23.229Z,4.50
2023-05-11T15:14:54.432Z,6.10
2023-05-11T15:17:22.291Z,9.60
2023-05-11T15:19:52.975Z,8.30
2023-05-11T15:22:22.604Z,10.20
2023-05-11T15:24:50.442Z,6.80
2023-05-11T15:27:18.198Z,5.70
2023-05-11T15:29:46.311Z,6.90
2023-05-11T15:32:15.461Z,6.00
2023-05-11T15:34:57.928Z,5.60
2023-05-11T15:37:28.540Z,5.50
2023-05-11T15:39:56.581Z,9.10
2023-05-11T15:42:25.060Z,9.00
2023-05-11T15:44:55.367Z,6.50
2023-05-11T15:47:26.392Z,7.10
2023-05-11T15:49:54.614Z,11.70
2023-05-11T15:52:22.387Z,10.40
2023-05-11T15:54:50.322Z,8.30
2023-05-11T15:57:18.664Z,11.20
2023-05-11T15:59:46.701Z,5.10
2023-05-11T16:02:14.587Z,9.20
2023-05-11T16:04:42.398Z,13.60
2023-05-11T16:07:10.232Z,12.50
2023-05-11T16:09:38.355Z,10.60
2023-05-11T16:12:07.055Z,7.60
2023-05-11T16:14:34.871Z,11.00
2023-05-11T16:17:03.215Z,8.70
2023-05-11T16:19:33.589Z,7.10
2023-05-11T16:22:01.347Z,7.50
2023-05-11T16:24:32.151Z,8.60
2023-05-11T16:27:01.909Z,8.40
2023-05-11T16:29:29.719Z,16.30
2023-05-11T16:31:57.606Z,6.00
2023-05-11T16:34:25.429Z,9.50
2023-05-11T16:36:53.164Z,8.60
2023-05-11T16:39:21.578Z,8.80
2023-05-11T16:41:49.775Z,9.30
2023-05-11T16:44:17.616Z,5.90
2023-05-11T16:46:45.499Z,11.20
2023-05-11T16:49:13.319Z,9.00
2023-05-11T16:51:41.708Z,8.70
2023-05-11T16:54:10.601Z,7.60
2023-05-11T16:56:38.837Z,11.10
2023-05-11T16:59:06.734Z,4.60
2023-05-11T17:01:34.488Z,8.60
2023-05-11T17:04:02.981Z,9.40
2023-05-11T17:06:32.072Z,11.00
2023-05-11T17:09:00.196Z,9.00
2023-05-11T17:11:28.435Z,8.90
2023-05-11T17:13:56.443Z,10.40
2023-05-11T17:16:24.892Z,7.50
2023-05-11T17:18:52.952Z,9.30
2023-05-11T17:21:20.789Z,6.00
2023-05-11T17:23:48.707Z,13.10
2023-05-11T17:26:16.881Z,10.20
2023-05-11T17:28:44.629Z,10.80
2023-05-11T17:31:15.476Z,12.50
2023-05-11T17:33:43.442Z,8.40
2023-05-11T17:36:12.722Z,8.60
2023-05-11T17:38:41.032Z,12.70
2023-05-11T17:41:14.592Z,14.00
2023-05-11T17:44:08.351Z,6.90
2023-05-11T17:46:36.164Z,9.30
2023-05-11T17:49:05.285Z,10.60
2023-05-11T17:51:33.132Z,7.90
2023-05-11T17:54:00.942Z,12.30
2023-05-11T17:56:28.702Z,10.40
2023-05-11T17:58:56.757Z,8.40
2023-05-11T18:01:31.679Z,8.50
2023-05-11T18:04:00.948Z,16.40
2023-05-11T18:06:29.436Z,12.50
2023-05-11T18:08:58.916Z,11.50
2023-05-11T18:11:27.423Z,16.80
2023-05-11T18:13:55.241Z,14.10
2023-05-11T18:16:23.635Z,15.50
2023-05-11T18:18:52.063Z,15.50
2023-05-11T18:21:19.929Z,12.00
2023-05-11T18:23:47.701Z,14.00
2023-05-11T18:26:16.385Z,10.10
2023-05-11T18:28:44.690Z,12.80
2023-05-11T18:31:13.032Z,12.10
2023-05-11T18:33:40.975Z,13.60
2023-05-11T18:36:08.691Z,12.20
2023-05-11T18:38:36.553Z,12.10
2023-05-11T18:41:05.824Z,15.70
2023-05-11T18:43:34.530Z,10.30
2023-05-11T18:46:07.624Z,13.60
2023-05-11T18:48:35.576Z,12.90
2023-05-11T18:51:06.050Z,11.70
2023-05-11T18:53:34.039Z,16.10
2023-05-11T18:56:01.784Z,14.60
2023-05-11T18:58:30.050Z,19.70
2023-05-11T19:01:01.313Z,16.20
2023-05-11T19:03:31.805Z,16.20
2023-05-11T19:06:02.886Z,15.30
2023-05-11T19:08:31.154Z,15.90
2023-05-11T19:11:08.443Z,15.90
2023-05-11T19:13:36.921Z,21.60
2023-05-11T19:16:05.393Z,19.00
2023-05-11T19:18:35.628Z,15.90
2023-05-11T19:21:05.344Z,18.00
2023-05-11T19:23:33.661Z,17.60
2023-05-11T19:26:01.865Z,15.40
2023-05-11T19:28:32.128Z,18.90
2023-05-11T19:31:02.233Z,19.70
2023-05-11T19:33:41.764Z,16.80
2023-05-11T19:36:12.548Z,22.30
2023-05-11T19:38:40.320Z,17.40
2023-05-11T19:41:09.008Z,18.00
2023-05-11T19:43:37.623Z,18.60
2023-05-11T19:46:08.408Z,17.50
2023-05-11T19:48:36.554Z,18.80
2023-05-11T19:51:04.663Z,17.00
2023-05-11T19:53:33.294Z,17.80
2023-05-11T19:56:01.124Z,19.50
2023-05-11T19:58:31.586Z,17.00
2023-05-11T20:01:00.189Z,19.30
2023-05-11T20:03:28.944Z,17.00
2023-05-11T20:05:57.186Z,18.60
2023-05-11T20:08:25.451Z,18.40
2023-05-11T20:10:53.123Z,18.00
2023-05-11T20:13:21.220Z,18.90
2023-05-11T20:15:49.579Z,18.30
2023-05-11T20:18:18.826Z,19.30
2023-05-11T20:20:46.595Z,18.70
2023-05-11T20:23:14.993Z,17.10
2023-05-11T20:25:44.158Z,16.20
2023-05-11T20:28:12.438Z,19.40
2023-05-11T20:30:40.673Z,16.70
2023-05-11T20:35:45.242Z,17.80
2023-05-11T20:38:13.886Z,17.30
2023-05-11T20:40:44.564Z,18.40
2023-05-11T20:43:15.138Z,21.70
2023-05-11T20:45:43.864Z,16.80
2023-05-11T20:48:12.278Z,20.20
2023-05-11T20:50:40.728Z,24.60
2023-05-11T20:53:08.899Z,19.50
2023-05-11T20:55:36.967Z,22.80
2023-05-11T20:58:05.199Z,21.60
2023-05-11T21:00:33.098Z,19.30
2023-05-11T21:03:01.495Z,18.70
2023-05-11T21:05:29.473Z,21.60
2023-05-11T21:07:58.001Z,23.00
2023-05-11T21:10:26.319Z,16.60
2023-05-11T21:12:54.284Z,17.60
2023-05-11T21:15:22.856Z,17.20
2023-05-11T21:17:50.628Z,20.10
2023-05-11T21:20:18.778Z,16.50
2023-05-11T21:22:47.695Z,18.90
2023-05-11T21:25:15.610Z,16.90
2023-05-11T21:27:43.474Z,15.60
2023-05-11T21:30:11.928Z,18.00
2023-05-11T21:32:39.665Z,18.40
2023-05-11T21:35:08.117Z,20.20
2023-05-11T21:37:36.524Z,16.80
2023-05-11T21:40:23.541Z,19.50
2023-05-11T21:42:51.349Z,18.90
2023-05-11T21:45:20.002Z,18.00
2023-05-11T21:47:47.834Z,16.80
2023-05-11T21:50:17.371Z,16.20
2023-05-11T21:52:45.389Z,17.40
2023-05-11T21:55:13.173Z,19.10
2023-05-11T21:57:40.986Z,17.70
2023-05-11T22:00:11.223Z,17.70
2023-05-11T22:02:39.142Z,15.50
2023-05-11T22:05:07.812Z,20.60
2023-05-11T22:07:35.709Z,18.20
2023-05-11T22:10:03.830Z,16.20
2023-05-11T22:12:31.679Z,16.40
2023-05-11T22:14:59.386Z,13.90
2023-05-11T22:17:27.695Z,16.90
2023-05-11T22:19:55.456Z,16.40
2023-05-11T22:22:23.257Z,16.40
2023-05-11T22:24:51.215Z,15.60
2023-05-11T22:27:19.220Z,15.20
2023-05-11T22:29:48.056Z,18.00
2023-05-11T22:32:16.492Z,16.10
2023-05-11T22:34:44.521Z,15.60
2023-05-11T22:37:12.252Z,14.90
2023-05-11T22:39:40.128Z,19.50
2023-05-11T22:42:08.183Z,20.70
2023-05-11T22:44:36.553Z,17.00
2023-05-11T22:47:07.801Z,18.40
2023-05-11T22:49:36.014Z,17.60
2023-05-11T22:52:05.254Z,18.80
2023-05-11T22:54:33.206Z,13.80
2023-05-11T22:57:01.658Z,20.30
2023-05-11T22:59:29.709Z,15.50
2023-05-11T23:02:02.055Z,14.40
2023-05-11T23:04:32.490Z,15.60
2023-05-11T23:07:00.384Z,17.10
2023-05-11T23:09:28.544Z,14.10
2023-05-11T23:11:56.319Z,15.10
2023-05-11T23:14:27.232Z,16.50
2023-05-11T23:16:55.692Z,16.50
2023-05-11T23:19:25.268Z,17.20
2023-05-11T23:21:53.184Z,16.80
2023-05-11T23:24:21.675Z,16.90
2023-05-11T23:26:49.436Z,14.50
2023-05-11T23:29:17.245Z,17.60
2023-05-11T23:31:45.839Z,15.30
2023-05-11T23:34:14.464Z,14.60
2023-05-11T23:36:42.547Z,16.10
2023-05-11T23:39:10.929Z,18.70
2023-05-11T23:41:38.985Z,18.10
2023-05-11T23:44:06.797Z,16.30
2023-05-11T23:46:36.207Z,18.30
2023-05-11T23:49:04.501Z,18.90
2023-05-11T23:51:32.499Z,15.50
2023-05-11T23:54:00.258Z,16.50
2023-05-11T23:56:28.204Z,17.50
2023-05-11T23:58:55.931Z,16.30
